sensor_id;sensor_type;location;lat;lon;timestamp;temperature;humidity
10828;DHT22;5467;59.334;13.512;2023-02-23T00:00:25;1.90;99.90
10828;DHT22;5467;59.334;13.512;2023-02-23T00:02:55;1.90;99.90
10828;DHT22;5467;59.334;13.512;2023-02-23T00:05:24;1.90;99.90
10828;DHT22;5467;59.334;13.512;2023-02-23T00:07:51;1.90;99.90
10828;DHT22;5467;59.334;13.512;2023-02-23T00:10:19;2.00;99.90
10828;DHT22;5467;59.334;13.512;2023-02-23T00:12:47;2.10;99.90
10828;DHT22;5467;59.334;13.512;2023-02-23T00:15:15;2.00;99.90
10828;DHT22;5467;59.334;13.512;2023-02-23T00:17:44;2.10;99.90
10828;DHT22;5467;59.334;13.512;2023-02-23T00:20:12;2.00;99.90
10828;DHT22;5467;59.334;13.512;2023-02-23T00:22:41;2.00;99.90
10828;DHT22;5467;59.334;13.512;2023-02-23T00:25:09;2.10;99.90
10828;DHT22;5467;59.334;13.512;2023-02-23T00:27:37;2.10;99.90
10828;DHT22;5467;59.334;13.512;2023-02-23T00:30:11;2.00;99.90
10828;DHT22;5467;59.334;13.512;2023-02-23T00:32:38;2.00;99.90
10828;DHT22;5467;59.334;13.512;2023-02-23T00:35:07;2.00;99.90
10828;DHT22;5467;59.334;13.512;2023-02-23T00:37:42;1.90;99.90
10828;DHT22;5467;59.334;13.512;2023-02-23T00:40:12;1.90;99.90
10828;DHT22;5467;59.334;13.512;2023-02-23T00:42:44;1.90;99.90
10828;DHT22;5467;59.334;13.512;2023-02-23T00:45:13;1.80;99.90
10828;DHT22;5467;59.334;13.512;2023-02-23T00:47:41;1.80;99.90
10828;DHT22;5467;59.334;13.512;2023-02-23T00:50:13;1.80;99.90
10828;DHT22;5467;59.334;13.512;2023-02-23T00:52:41;1.80;99.90
10828;DHT22;5467;59.334;13.512;2023-02-23T00:55:10;1.80;99.90
10828;DHT22;5467;59.334;13.512;2023-02-23T00:57:38;1.80;99.90
10828;DHT22;5467;59.334;13.512;2023-02-23T01:00:07;1.70;99.90
10828;DHT22;5467;59.334;13.512;2023-02-23T01:02:43;1.70;99.90
10828;DHT22;5467;59.334;13.512;2023-02-23T01:05:12;1.70;99.90
10828;DHT22;5467;59.334;13.512;2023-02-23T01:07:39;1.70;99.90
10828;DHT22;5467;59.334;13.512;2023-02-23T01:10:07;1.70;99.90
10828;DHT22;5467;59.334;13.512;2023-02-23T01:12:46;1.70;99.90
10828;DHT22;5467;59.334;13.512;2023-02-23T01:15:14;1.60;99.90
10828;DHT22;5467;59.334;13.512;2023-02-23T01:17:42;1.60;99.90
10828;DHT22;5467;59.334;13.512;2023-02-23T01:20:13;1.70;99.90
10828;DHT22;5467;59.334;13.512;2023-02-23T01:22:43;1.70;99.90
10828;DHT22;5467;59.334;13.512;2023-02-23T01:25:10;1.70;99.90
10828;DHT22;5467;59.334;13.512;2023-02-23T01:27:39;1.60;99.90
10828;DHT22;5467;59.334;13.512;2023-02-23T01:30:09;1.50;99.90
10828;DHT22;5467;59.334;13.512;2023-02-23T01:32:37;1.60;99.90
10828;DHT22;5467;59.334;13.512;2023-02-23T01:35:06;1.60;99.90
10828;DHT22;5467;59.334;13.512;2023-02-23T01:37:35;1.60;99.90
10828;DHT22;5467;59.334;13.512;2023-02-23T01:40:06;1.60;99.90
10828;DHT22;5467;59.334;13.512;2023-02-23T01:42:40;1.60;99.90
10828;DHT22;5467;59.334;13.512;2023-02-23T01:45:23;1.60;99.90
10828;DHT22;5467;59.334;13.512;2023-02-23T01:47:52;1.60;99.90
10828;DHT22;5467;59.334;13.512;2023-02-23T01:50:20;1.50;99.90
10828;DHT22;5467;59.334;13.512;2023-02-23T01:52:50;1.50;99.90
10828;DHT22;5467;59.334;13.512;2023-02-23T01:55:20;1.60;99.90
10828;DHT22;5467;59.334;13.512;2023-02-23T01:57:51;1.70;99.90
10828;DHT22;5467;59.334;13.512;2023-02-23T02:00:20;1.60;99.90
10828;DHT22;5467;59.334;13.512;2023-02-23T02:02:50;1.50;99.90
10828;DHT22;5467;59.334;13.512;2023-02-23T02:05:18;1.50;99.90
10828;DHT22;5467;59.334;13.512;2023-02-23T02:07:49;1.40;99.90
10828;DHT22;5467;59.334;13.512;2023-02-23T02:10:25;1.50;99.90
10828;DHT22;5467;59.334;13.512;2023-02-23T02:13:16;1.50;99.90
10828;DHT22;5467;59.334;13.512;2023-02-23T02:16:12;1.60;99.90
10828;DHT22;5467;59.334;13.512;2023-02-23T02:18:54;1.60;99.90
10828;DHT22;5467;59.334;13.512;2023-02-23T02:25:03;1.50;99.90
10828;DHT22;5467;59.334;13.512;2023-02-23T02:27:56;1.40;99.90
10828;DHT22;5467;59.334;13.512;2023-02-23T02:30:46;1.30;99.90
10828;DHT22;5467;59.334;13.512;2023-02-23T02:33:42;1.40;99.90
10828;DHT22;5467;59.334;13.512;2023-02-23T02:36:47;1.40;99.90
10828;DHT22;5467;59.334;13.512;2023-02-23T02:39:25;1.40;99.90
10828;DHT22;5467;59.334;13.512;2023-02-23T02:42:08;1.50;99.90
10828;DHT22;5467;59.334;13.512;2023-02-23T02:44:49;1.40;99.90
10828;DHT22;5467;59.334;13.512;2023-02-23T02:47:21;1.50;99.90
10828;DHT22;5467;59.334;13.512;2023-02-23T02:49:58;1.40;99.90
10828;DHT22;5467;59.334;13.512;2023-02-23T02:52:34;1.40;99.90
10828;DHT22;5467;59.334;13.512;2023-02-23T02:55:08;1.40;99.90
10828;DHT22;5467;59.334;13.512;2023-02-23T02:57:38;1.40;99.90
10828;DHT22;5467;59.334;13.512;2023-02-23T03:00:07;1.40;99.90
10828;DHT22;5467;59.334;13.512;2023-02-23T03:02:52;1.40;99.90
10828;DHT22;5467;59.334;13.512;2023-02-23T03:05:42;1.40;99.90
10828;DHT22;5467;59.334;13.512;2023-02-23T03:08:33;1.30;99.90
10828;DHT22;5467;59.334;13.512;2023-02-23T03:11:24;1.30;99.90
10828;DHT22;5467;59.334;13.512;2023-02-23T03:14:24;1.40;99.90
10828;DHT22;5467;59.334;13.512;2023-02-23T03:17:17;1.30;99.90
10828;DHT22;5467;59.334;13.512;2023-02-23T03:20:12;1.30;99.90
10828;DHT22;5467;59.334;13.512;2023-02-23T03:23:08;1.30;99.90
10828;DHT22;5467;59.334;13.512;2023-02-23T03:26:02;1.30;99.90
10828;DHT22;5467;59.334;13.512;2023-02-23T03:28:57;1.30;99.90
10828;DHT22;5467;59.334;13.512;2023-02-23T03:31:47;1.30;99.90
10828;DHT22;5467;59.334;13.512;2023-02-23T03:34:36;1.20;99.90
10828;DHT22;5467;59.334;13.512;2023-02-23T03:37:25;1.20;99.90
10828;DHT22;5467;59.334;13.512;2023-02-23T03:40:14;1.30;99.90
10828;DHT22;5467;59.334;13.512;2023-02-23T03:43:02;1.30;99.90
10828;DHT22;5467;59.334;13.512;2023-02-23T03:45:49;1.30;99.90
10828;DHT22;5467;59.334;13.512;2023-02-23T03:48:35;1.30;99.90
10828;DHT22;5467;59.334;13.512;2023-02-23T03:51:22;1.30;99.90
10828;DHT22;5467;59.334;13.512;2023-02-23T03:54:11;1.30;99.90
10828;DHT22;5467;59.334;13.512;2023-02-23T03:57:00;1.20;99.90
10828;DHT22;5467;59.334;13.512;2023-02-23T03:59:49;1.20;99.90
10828;DHT22;5467;59.334;13.512;2023-02-23T04:02:38;1.20;99.90
10828;DHT22;5467;59.334;13.512;2023-02-23T04:05:24;1.30;99.90
10828;DHT22;5467;59.334;13.512;2023-02-23T04:08:13;1.20;99.90
10828;DHT22;5467;59.334;13.512;2023-02-23T04:11:04;1.20;99.90
10828;DHT22;5467;59.334;13.512;2023-02-23T04:13:53;1.20;99.90
10828;DHT22;5467;59.334;13.512;2023-02-23T04:16:23;1.30;99.90
10828;DHT22;5467;59.334;13.512;2023-02-23T04:18:49;1.40;99.90
10828;DHT22;5467;59.334;13.512;2023-02-23T04:21:16;1.40;99.90
10828;DHT22;5467;59.334;13.512;2023-02-23T04:23:43;1.40;99.90
10828;DHT22;5467;59.334;13.512;2023-02-23T04:26:11;1.20;99.90
10828;DHT22;5467;59.334;13.512;2023-02-23T04:28:38;1.20;99.90
10828;DHT22;5467;59.334;13.512;2023-02-23T04:31:05;1.30;99.90
10828;DHT22;5467;59.334;13.512;2023-02-23T04:33:33;1.30;99.90
10828;DHT22;5467;59.334;13.512;2023-02-23T04:36:01;1.30;99.90
10828;DHT22;5467;59.334;13.512;2023-02-23T04:38:28;1.30;99.90
10828;DHT22;5467;59.334;13.512;2023-02-23T04:40:55;1.30;99.90
10828;DHT22;5467;59.334;13.512;2023-02-23T04:43:22;1.30;99.90
10828;DHT22;5467;59.334;13.512;2023-02-23T04:45:49;1.30;99.90
10828;DHT22;5467;59.334;13.512;2023-02-23T04:48:16;1.30;99.90
10828;DHT22;5467;59.334;13.512;2023-02-23T04:50:45;1.30;99.90
10828;DHT22;5467;59.334;13.512;2023-02-23T04:53:12;1.30;99.90
10828;DHT22;5467;59.334;13.512;2023-02-23T04:55:39;1.30;99.90
10828;DHT22;5467;59.334;13.512;2023-02-23T04:58:08;1.30;99.90
10828;DHT22;5467;59.334;13.512;2023-02-23T05:00:38;1.30;99.90
10828;DHT22;5467;59.334;13.512;2023-02-23T05:03:06;1.30;99.90
10828;DHT22;5467;59.334;13.512;2023-02-23T05:05:33;1.30;99.90
10828;DHT22;5467;59.334;13.512;2023-02-23T05:08:01;1.40;99.90
10828;DHT22;5467;59.334;13.512;2023-02-23T05:10:28;1.40;99.90
10828;DHT22;5467;59.334;13.512;2023-02-23T05:12:56;1.40;99.90
10828;DHT22;5467;59.334;13.512;2023-02-23T05:15:23;1.50;99.90
10828;DHT22;5467;59.334;13.512;2023-02-23T05:17:50;1.50;99.90
10828;DHT22;5467;59.334;13.512;2023-02-23T05:20:18;1.50;99.90
10828;DHT22;5467;59.334;13.512;2023-02-23T05:22:45;1.40;99.90
10828;DHT22;5467;59.334;13.512;2023-02-23T05:25:13;1.40;99.90
10828;DHT22;5467;59.334;13.512;2023-02-23T05:27:40;1.50;99.90
10828;DHT22;5467;59.334;13.512;2023-02-23T05:30:09;1.50;99.90
10828;DHT22;5467;59.334;13.512;2023-02-23T05:32:36;1.50;99.90
10828;DHT22;5467;59.334;13.512;2023-02-23T05:35:03;1.30;99.90
10828;DHT22;5467;59.334;13.512;2023-02-23T05:37:31;1.30;99.90
10828;DHT22;5467;59.334;13.512;2023-02-23T05:39:58;1.30;99.90
10828;DHT22;5467;59.334;13.512;2023-02-23T05:42:27;1.40;99.90
10828;DHT22;5467;59.334;13.512;2023-02-23T05:44:54;1.50;99.90
10828;DHT22;5467;59.334;13.512;2023-02-23T05:47:21;1.60;99.90
10828;DHT22;5467;59.334;13.512;2023-02-23T05:49:48;1.40;99.90
10828;DHT22;5467;59.334;13.512;2023-02-23T05:52:15;1.40;99.90
10828;DHT22;5467;59.334;13.512;2023-02-23T05:54:42;1.40;99.90
10828;DHT22;5467;59.334;13.512;2023-02-23T05:57:11;1.50;99.90
10828;DHT22;5467;59.334;13.512;2023-02-23T05:59:42;1.50;99.90
10828;DHT22;5467;59.334;13.512;2023-02-23T06:02:09;1.50;99.90
10828;DHT22;5467;59.334;13.512;2023-02-23T06:04:36;1.50;99.90
10828;DHT22;5467;59.334;13.512;2023-02-23T06:07:03;1.60;99.90
10828;DHT22;5467;59.334;13.512;2023-02-23T06:09:31;1.50;99.90
10828;DHT22;5467;59.334;13.512;2023-02-23T06:11:58;1.40;99.90
10828;DHT22;5467;59.334;13.512;2023-02-23T06:14:25;1.50;99.90
10828;DHT22;5467;59.334;13.512;2023-02-23T06:16:54;1.50;99.90
10828;DHT22;5467;59.334;13.512;2023-02-23T06:19:21;1.50;99.90
10828;DHT22;5467;59.334;13.512;2023-02-23T06:21:48;1.60;99.90
10828;DHT22;5467;59.334;13.512;2023-02-23T06:24:17;1.50;99.90
10828;DHT22;5467;59.334;13.512;2023-02-23T06:26:44;1.60;99.90
10828;DHT22;5467;59.334;13.512;2023-02-23T06:29:11;1.60;99.90
10828;DHT22;5467;59.334;13.512;2023-02-23T06:31:39;1.60;99.90
10828;DHT22;5467;59.334;13.512;2023-02-23T06:34:08;1.50;99.90
10828;DHT22;5467;59.334;13.512;2023-02-23T06:36:36;1.50;99.90
10828;DHT22;5467;59.334;13.512;2023-02-23T06:39:03;1.60;99.90
10828;DHT22;5467;59.334;13.512;2023-02-23T06:41:31;1.60;99.90
10828;DHT22;5467;59.334;13.512;2023-02-23T06:43:58;1.50;99.90
10828;DHT22;5467;59.334;13.512;2023-02-23T06:46:25;1.60;99.90
10828;DHT22;5467;59.334;13.512;2023-02-23T06:48:54;1.60;99.90
10828;DHT22;5467;59.334;13.512;2023-02-23T06:51:23;1.60;99.90
10828;DHT22;5467;59.334;13.512;2023-02-23T06:53:50;1.60;99.90
10828;DHT22;5467;59.334;13.512;2023-02-23T06:56:18;1.60;99.90
10828;DHT22;5467;59.334;13.512;2023-02-23T06:58:46;1.60;99.90
10828;DHT22;5467;59.334;13.512;2023-02-23T07:01:13;1.60;99.90
10828;DHT22;5467;59.334;13.512;2023-02-23T07:03:41;1.60;99.90
10828;DHT22;5467;59.334;13.512;2023-02-23T07:06:08;1.50;99.90
10828;DHT22;5467;59.334;13.512;2023-02-23T07:08:37;1.60;99.90
10828;DHT22;5467;59.334;13.512;2023-02-23T07:11:06;1.60;99.90
10828;DHT22;5467;59.334;13.512;2023-02-23T07:13:33;1.70;99.90
10828;DHT22;5467;59.334;13.512;2023-02-23T07:16:00;1.70;99.90
10828;DHT22;5467;59.334;13.512;2023-02-23T07:18:27;1.70;99.90
10828;DHT22;5467;59.334;13.512;2023-02-23T07:20:55;1.70;99.90
10828;DHT22;5467;59.334;13.512;2023-02-23T07:23:22;1.70;99.90
10828;DHT22;5467;59.334;13.512;2023-02-23T07:25:51;1.70;99.90
10828;DHT22;5467;59.334;13.512;2023-02-23T07:28:18;1.60;99.90
10828;DHT22;5467;59.334;13.512;2023-02-23T07:30:46;1.60;99.90
10828;DHT22;5467;59.334;13.512;2023-02-23T07:33:14;1.70;99.90
10828;DHT22;5467;59.334;13.512;2023-02-23T07:35:41;1.60;99.90
10828;DHT22;5467;59.334;13.512;2023-02-23T07:38:09;1.60;99.90
10828;DHT22;5467;59.334;13.512;2023-02-23T07:40:37;1.60;99.90
10828;DHT22;5467;59.334;13.512;2023-02-23T07:43:06;1.60;99.90
10828;DHT22;5467;59.334;13.512;2023-02-23T07:45:33;1.60;99.90
10828;DHT22;5467;59.334;13.512;2023-02-23T07:48:00;1.60;99.90
10828;DHT22;5467;59.334;13.512;2023-02-23T07:50:27;1.60;99.90
10828;DHT22;5467;59.334;13.512;2023-02-23T07:52:54;1.60;99.90
10828;DHT22;5467;59.334;13.512;2023-02-23T07:55:21;1.60;99.90
10828;DHT22;5467;59.334;13.512;2023-02-23T07:57:48;1.70;99.90
10828;DHT22;5467;59.334;13.512;2023-02-23T08:00:18;1.80;99.90
10828;DHT22;5467;59.334;13.512;2023-02-23T08:02:45;1.80;99.90
10828;DHT22;5467;59.334;13.512;2023-02-23T08:05:12;1.90;99.90
10828;DHT22;5467;59.334;13.512;2023-02-23T08:07:39;1.90;99.90
10828;DHT22;5467;59.334;13.512;2023-02-23T08:10:07;1.90;99.90
10828;DHT22;5467;59.334;13.512;2023-02-23T08:12:34;1.90;99.90
10828;DHT22;5467;59.334;13.512;2023-02-23T08:15:02;2.00;99.90
10828;DHT22;5467;59.334;13.512;2023-02-23T08:17:36;1.90;99.90
10828;DHT22;5467;59.334;13.512;2023-02-23T08:20:05;1.90;99.90
10828;DHT22;5467;59.334;13.512;2023-02-23T08:22:32;2.00;99.90
10828;DHT22;5467;59.334;13.512;2023-02-23T08:24:59;1.90;99.90
10828;DHT22;5467;59.334;13.512;2023-02-23T08:27:32;1.80;99.90
10828;DHT22;5467;59.334;13.512;2023-02-23T08:29:59;1.90;99.90
10828;DHT22;5467;59.334;13.512;2023-02-23T08:32:28;1.90;99.90
10828;DHT22;5467;59.334;13.512;2023-02-23T08:34:57;1.90;99.90
10828;DHT22;5467;59.334;13.512;2023-02-23T08:37:25;1.80;99.90
10828;DHT22;5467;59.334;13.512;2023-02-23T08:39:53;1.80;99.90
10828;DHT22;5467;59.334;13.512;2023-02-23T08:42:21;1.80;99.90
10828;DHT22;5467;59.334;13.512;2023-02-23T08:44:48;1.80;99.90
10828;DHT22;5467;59.334;13.512;2023-02-23T08:47:15;1.90;99.90
10828;DHT22;5467;59.334;13.512;2023-02-23T08:49:42;2.10;99.90
10828;DHT22;5467;59.334;13.512;2023-02-23T08:52:10;2.00;99.90
10828;DHT22;5467;59.334;13.512;2023-02-23T08:54:38;2.00;99.90
10828;DHT22;5467;59.334;13.512;2023-02-23T08:57:05;2.00;99.90
10828;DHT22;5467;59.334;13.512;2023-02-23T08:59:32;2.00;99.90
10828;DHT22;5467;59.334;13.512;2023-02-23T09:01:59;2.00;99.90
10828;DHT22;5467;59.334;13.512;2023-02-23T09:04:26;2.00;99.90
10828;DHT22;5467;59.334;13.512;2023-02-23T09:06:53;2.00;99.90
10828;DHT22;5467;59.334;13.512;2023-02-23T09:09:22;2.10;99.90
10828;DHT22;5467;59.334;13.512;2023-02-23T09:11:49;2.20;99.90
10828;DHT22;5467;59.334;13.512;2023-02-23T09:14:16;2.10;99.90
10828;DHT22;5467;59.334;13.512;2023-02-23T09:16:43;2.10;99.90
10828;DHT22;5467;59.334;13.512;2023-02-23T09:19:10;2.10;99.90
10828;DHT22;5467;59.334;13.512;2023-02-23T09:21:38;2.30;99.90
10828;DHT22;5467;59.334;13.512;2023-02-23T09:24:05;2.20;99.90
10828;DHT22;5467;59.334;13.512;2023-02-23T09:26:34;2.30;99.90
10828;DHT22;5467;59.334;13.512;2023-02-23T09:29:05;2.30;99.90
10828;DHT22;5467;59.334;13.512;2023-02-23T09:31:33;2.30;99.90
10828;DHT22;5467;59.334;13.512;2023-02-23T09:34:02;2.30;99.90
10828;DHT22;5467;59.334;13.512;2023-02-23T09:36:29;2.30;99.90
10828;DHT22;5467;59.334;13.512;2023-02-23T09:38:59;2.30;99.90
10828;DHT22;5467;59.334;13.512;2023-02-23T09:44:41;2.50;99.90
10828;DHT22;5467;59.334;13.512;2023-02-23T09:47:25;2.50;99.90
10828;DHT22;5467;59.334;13.512;2023-02-23T09:49:56;2.60;99.90
10828;DHT22;5467;59.334;13.512;2023-02-23T09:52:27;2.60;99.90
10828;DHT22;5467;59.334;13.512;2023-02-23T09:54:57;2.60;99.90
10828;DHT22;5467;59.334;13.512;2023-02-23T09:57:35;2.50;99.90
10828;DHT22;5467;59.334;13.512;2023-02-23T10:00:09;2.60;99.90
10828;DHT22;5467;59.334;13.512;2023-02-23T10:02:54;2.70;99.90
10828;DHT22;5467;59.334;13.512;2023-02-23T10:05:29;2.60;99.90
10828;DHT22;5467;59.334;13.512;2023-02-23T10:08:02;2.60;99.90
10828;DHT22;5467;59.334;13.512;2023-02-23T10:10:38;2.60;99.90
10828;DHT22;5467;59.334;13.512;2023-02-23T10:13:15;2.60;99.90
10828;DHT22;5467;59.334;13.512;2023-02-23T10:15:49;2.60;99.90
10828;DHT22;5467;59.334;13.512;2023-02-23T10:18:24;2.60;99.90
10828;DHT22;5467;59.334;13.512;2023-02-23T10:20:59;2.50;99.90
10828;DHT22;5467;59.334;13.512;2023-02-23T10:23:32;2.50;99.90
10828;DHT22;5467;59.334;13.512;2023-02-23T10:26:01;2.60;99.90
10828;DHT22;5467;59.334;13.512;2023-02-23T10:28:34;2.70;99.90
10828;DHT22;5467;59.334;13.512;2023-02-23T10:31:02;2.70;99.90
10828;DHT22;5467;59.334;13.512;2023-02-23T10:33:36;2.60;99.90
10828;DHT22;5467;59.334;13.512;2023-02-23T10:36:11;2.60;99.90
10828;DHT22;5467;59.334;13.512;2023-02-23T10:38:39;2.50;99.90
10828;DHT22;5467;59.334;13.512;2023-02-23T10:41:06;2.50;99.90
10828;DHT22;5467;59.334;13.512;2023-02-23T10:43:36;2.40;99.90
10828;DHT22;5467;59.334;13.512;2023-02-23T10:46:04;2.40;99.90
10828;DHT22;5467;59.334;13.512;2023-02-23T10:48:36;2.40;99.90
10828;DHT22;5467;59.334;13.512;2023-02-23T10:51:06;2.40;99.90
10828;DHT22;5467;59.334;13.512;2023-02-23T10:53:40;2.30;99.90
10828;DHT22;5467;59.334;13.512;2023-02-23T10:56:09;2.50;99.90
10828;DHT22;5467;59.334;13.512;2023-02-23T10:58:43;2.50;99.90
10828;DHT22;5467;59.334;13.512;2023-02-23T11:01:12;2.50;99.90
10828;DHT22;5467;59.334;13.512;2023-02-23T11:03:41;2.60;99.90
10828;DHT22;5467;59.334;13.512;2023-02-23T11:06:28;2.60;99.90
10828;DHT22;5467;59.334;13.512;2023-02-23T11:08:55;2.70;99.90
10828;DHT22;5467;59.334;13.512;2023-02-23T11:11:24;2.80;99.90
10828;DHT22;5467;59.334;13.512;2023-02-23T11:13:55;2.80;99.90
10828;DHT22;5467;59.334;13.512;2023-02-23T11:16:24;2.90;99.90
10828;DHT22;5467;59.334;13.512;2023-02-23T11:18:54;2.90;99.90
10828;DHT22;5467;59.334;13.512;2023-02-23T11:21:26;2.90;99.90
10828;DHT22;5467;59.334;13.512;2023-02-23T11:24:00;2.90;99.90
10828;DHT22;5467;59.334;13.512;2023-02-23T11:26:31;3.00;99.90
10828;DHT22;5467;59.334;13.512;2023-02-23T11:29:02;2.90;99.90
10828;DHT22;5467;59.334;13.512;2023-02-23T11:31:36;3.00;99.90
10828;DHT22;5467;59.334;13.512;2023-02-23T11:34:07;3.00;99.90
10828;DHT22;5467;59.334;13.512;2023-02-23T11:36:35;3.00;99.90
10828;DHT22;5467;59.334;13.512;2023-02-23T11:39:06;3.10;99.90
10828;DHT22;5467;59.334;13.512;2023-02-23T11:41:40;3.00;99.90
10828;DHT22;5467;59.334;13.512;2023-02-23T11:44:18;3.00;99.90
10828;DHT22;5467;59.334;13.512;2023-02-23T11:46:46;3.10;99.90
10828;DHT22;5467;59.334;13.512;2023-02-23T11:49:18;3.10;99.90
10828;DHT22;5467;59.334;13.512;2023-02-23T11:51:46;3.00;99.90
10828;DHT22;5467;59.334;13.512;2023-02-23T11:54:20;2.90;99.90
10828;DHT22;5467;59.334;13.512;2023-02-23T11:56:49;2.90;99.90
10828;DHT22;5467;59.334;13.512;2023-02-23T11:59:25;2.90;99.90
10828;DHT22;5467;59.334;13.512;2023-02-23T12:01:58;2.90;99.90
10828;DHT22;5467;59.334;13.512;2023-02-23T12:04:31;3.00;99.90
10828;DHT22;5467;59.334;13.512;2023-02-23T12:07:28;3.00;99.90
10828;DHT22;5467;59.334;13.512;2023-02-23T12:10:03;3.00;99.90
10828;DHT22;5467;59.334;13.512;2023-02-23T12:12:39;3.00;99.90
10828;DHT22;5467;59.334;13.512;2023-02-23T12:15:18;3.10;99.90
10828;DHT22;5467;59.334;13.512;2023-02-23T12:17:50;3.10;99.90
10828;DHT22;5467;59.334;13.512;2023-02-23T12:20:22;3.10;99.90
10828;DHT22;5467;59.334;13.512;2023-02-23T12:22:54;3.20;99.90
10828;DHT22;5467;59.334;13.512;2023-02-23T12:25:27;3.20;99.90
10828;DHT22;5467;59.334;13.512;2023-02-23T12:28:00;3.20;99.90
10828;DHT22;5467;59.334;13.512;2023-02-23T12:30:40;3.00;99.90
10828;DHT22;5467;59.334;13.512;2023-02-23T12:33:12;3.00;99.90
10828;DHT22;5467;59.334;13.512;2023-02-23T12:35:45;3.10;99.90
10828;DHT22;5467;59.334;13.512;2023-02-23T12:38:22;3.00;99.90
10828;DHT22;5467;59.334;13.512;2023-02-23T12:40:58;3.00;99.90
10828;DHT22;5467;59.334;13.512;2023-02-23T12:43:34;3.00;99.90
10828;DHT22;5467;59.334;13.512;2023-02-23T12:46:08;3.00;99.90
10828;DHT22;5467;59.334;13.512;2023-02-23T12:48:45;3.00;99.90
10828;DHT22;5467;59.334;13.512;2023-02-23T12:51:20;3.00;99.90
10828;DHT22;5467;59.334;13.512;2023-02-23T12:53:50;3.00;99.90
10828;DHT22;5467;59.334;13.512;2023-02-23T12:56:42;3.00;99.90
10828;DHT22;5467;59.334;13.512;2023-02-23T12:59:21;3.00;99.90
10828;DHT22;5467;59.334;13.512;2023-02-23T13:01:56;3.10;99.90
10828;DHT22;5467;59.334;13.512;2023-02-23T13:04:51;3.00;99.90
10828;DHT22;5467;59.334;13.512;2023-02-23T13:07:29;3.00;99.90
10828;DHT22;5467;59.334;13.512;2023-02-23T13:10:11;3.10;99.90
10828;DHT22;5467;59.334;13.512;2023-02-23T13:12:49;3.00;99.90
10828;DHT22;5467;59.334;13.512;2023-02-23T13:15:23;2.80;99.90
10828;DHT22;5467;59.334;13.512;2023-02-23T13:17:57;2.70;99.90
10828;DHT22;5467;59.334;13.512;2023-02-23T13:20:32;2.80;99.90
10828;DHT22;5467;59.334;13.512;2023-02-23T13:23:09;2.80;99.90
10828;DHT22;5467;59.334;13.512;2023-02-23T13:25:45;2.70;99.90
10828;DHT22;5467;59.334;13.512;2023-02-23T13:28:18;2.80;99.90
10828;DHT22;5467;59.334;13.512;2023-02-23T13:30:46;2.90;99.90
10828;DHT22;5467;59.334;13.512;2023-02-23T13:33:24;2.90;99.90
10828;DHT22;5467;59.334;13.512;2023-02-23T13:35:52;3.00;99.90
10828;DHT22;5467;59.334;13.512;2023-02-23T13:38:26;3.00;99.90
10828;DHT22;5467;59.334;13.512;2023-02-23T13:41:02;3.00;99.90
10828;DHT22;5467;59.334;13.512;2023-02-23T13:43:36;3.10;99.90
10828;DHT22;5467;59.334;13.512;2023-02-23T13:46:14;3.00;99.90
10828;DHT22;5467;59.334;13.512;2023-02-23T13:48:50;2.90;99.90
10828;DHT22;5467;59.334;13.512;2023-02-23T13:51:27;3.00;99.90
10828;DHT22;5467;59.334;13.512;2023-02-23T13:54:03;3.10;99.90
10828;DHT22;5467;59.334;13.512;2023-02-23T13:56:33;3.00;99.90
10828;DHT22;5467;59.334;13.512;2023-02-23T13:59:04;3.00;99.90
10828;DHT22;5467;59.334;13.512;2023-02-23T14:01:36;3.00;99.90
10828;DHT22;5467;59.334;13.512;2023-02-23T14:04:06;2.80;99.90
10828;DHT22;5467;59.334;13.512;2023-02-23T14:06:48;2.80;99.90
10828;DHT22;5467;59.334;13.512;2023-02-23T14:09:21;2.80;99.90
10828;DHT22;5467;59.334;13.512;2023-02-23T14:11:51;2.60;99.90
10828;DHT22;5467;59.334;13.512;2023-02-23T14:14:40;2.60;99.90
10828;DHT22;5467;59.334;13.512;2023-02-23T14:20:43;2.60;99.90
10828;DHT22;5467;59.334;13.512;2023-02-23T14:23:38;2.70;99.90
10828;DHT22;5467;59.334;13.512;2023-02-23T14:26:36;2.70;99.90
10828;DHT22;5467;59.334;13.512;2023-02-23T14:29:21;2.70;99.90
10828;DHT22;5467;59.334;13.512;2023-02-23T14:31:54;2.30;99.90
10828;DHT22;5467;59.334;13.512;2023-02-23T14:34:22;2.30;99.90
10828;DHT22;5467;59.334;13.512;2023-02-23T14:36:51;2.10;99.90
10828;DHT22;5467;59.334;13.512;2023-02-23T14:39:23;2.20;99.90
10828;DHT22;5467;59.334;13.512;2023-02-23T14:41:53;2.20;99.90
10828;DHT22;5467;59.334;13.512;2023-02-23T14:44:25;2.20;99.90
10828;DHT22;5467;59.334;13.512;2023-02-23T14:46:55;2.30;99.90
10828;DHT22;5467;59.334;13.512;2023-02-23T14:49:26;2.30;99.90
10828;DHT22;5467;59.334;13.512;2023-02-23T14:51:56;2.50;99.90
10828;DHT22;5467;59.334;13.512;2023-02-23T14:54:30;2.40;99.90
10828;DHT22;5467;59.334;13.512;2023-02-23T14:56:59;2.40;99.90
10828;DHT22;5467;59.334;13.512;2023-02-23T14:59:28;2.40;99.90
10828;DHT22;5467;59.334;13.512;2023-02-23T15:02:07;2.50;99.90
10828;DHT22;5467;59.334;13.512;2023-02-23T15:04:34;2.50;99.90
10828;DHT22;5467;59.334;13.512;2023-02-23T15:07:05;2.50;99.90
10828;DHT22;5467;59.334;13.512;2023-02-23T15:09:37;2.40;99.90
10828;DHT22;5467;59.334;13.512;2023-02-23T15:12:13;2.40;99.90
10828;DHT22;5467;59.334;13.512;2023-02-23T15:14:42;2.30;99.90
10828;DHT22;5467;59.334;13.512;2023-02-23T15:17:14;2.10;99.90
10828;DHT22;5467;59.334;13.512;2023-02-23T15:19:43;2.10;99.90
10828;DHT22;5467;59.334;13.512;2023-02-23T15:22:22;2.10;99.90
10828;DHT22;5467;59.334;13.512;2023-02-23T15:24:49;2.10;99.90
10828;DHT22;5467;59.334;13.512;2023-02-23T15:27:20;2.10;99.90
10828;DHT22;5467;59.334;13.512;2023-02-23T15:29:49;2.10;99.90
10828;DHT22;5467;59.334;13.512;2023-02-23T15:32:19;2.10;99.90
10828;DHT22;5467;59.334;13.512;2023-02-23T15:34:47;2.10;99.90
10828;DHT22;5467;59.334;13.512;2023-02-23T15:37:21;2.10;99.90
10828;DHT22;5467;59.334;13.512;2023-02-23T15:39:53;2.10;99.90
10828;DHT22;5467;59.334;13.512;2023-02-23T15:42:24;2.10;99.90
10828;DHT22;5467;59.334;13.512;2023-02-23T15:44:56;2.00;99.90
10828;DHT22;5467;59.334;13.512;2023-02-23T15:47:26;2.00;99.90
10828;DHT22;5467;59.334;13.512;2023-02-23T15:50:02;1.90;99.90
10828;DHT22;5467;59.334;13.512;2023-02-23T15:52:33;1.90;99.90
10828;DHT22;5467;59.334;13.512;2023-02-23T15:55:07;1.90;99.90
10828;DHT22;5467;59.334;13.512;2023-02-23T15:57:48;1.90;99.90
10828;DHT22;5467;59.334;13.512;2023-02-23T16:00:20;1.80;99.90
10828;DHT22;5467;59.334;13.512;2023-02-23T16:02:58;1.80;99.90
10828;DHT22;5467;59.334;13.512;2023-02-23T16:05:29;1.70;99.90
10828;DHT22;5467;59.334;13.512;2023-02-23T16:08:05;1.70;99.90
10828;DHT22;5467;59.334;13.512;2023-02-23T16:10:42;1.60;99.90
10828;DHT22;5467;59.334;13.512;2023-02-23T16:13:13;1.70;99.90
10828;DHT22;5467;59.334;13.512;2023-02-23T16:15:42;1.70;99.90
10828;DHT22;5467;59.334;13.512;2023-02-23T16:18:13;1.70;99.90
10828;DHT22;5467;59.334;13.512;2023-02-23T16:20:45;1.70;99.90
10828;DHT22;5467;59.334;13.512;2023-02-23T16:23:22;1.60;99.90
10828;DHT22;5467;59.334;13.512;2023-02-23T16:25:53;1.70;99.90
10828;DHT22;5467;59.334;13.512;2023-02-23T16:28:22;1.70;99.90